WetterOnline ( http://www.wetteronline.de )

Wetter aktuell Bad Driburg

Aktuelles Wetter: Bad Lippspringe (158m)

6-stündlich | Neueste Meldungen
Ortszeit Temperatur Wetter
Sa, 16.02. 13:00 15.0° C leicht bewölkt
Sa, 16.02. 7:00 1.8° C wolkenlos
Sa, 16.02. 1:00 1.2° C wolkenlos
Fr, 15.02. 19:00 12.0° C wolkenlos
Fr, 15.02. 13:00 15.6° C wolkenlos
Fr, 15.02. 7:00 0.5° C wolkenlos
Fr, 15.02. 1:00 0.8° C wolkenlos
Do, 14.02. 19:00 2.7° C wolkenlos
Ortszeit Temperatur Wetter
Sa, 16.02. 18:30 10.0° C wolkig
Sa, 16.02. 18:20 10.0° C wolkig
Sa, 16.02. 18:10 6.6° C wolkig
Sa, 16.02. 18:00 8.4° C wolkig
Sa, 16.02. 17:50 8.4° C wolkig
Sa, 16.02. 17:40 10.1° C wolkig
Sa, 16.02. 17:30 13.3° C wolkig
Sa, 16.02. 17:00 14.2° C leicht bewölkt
Sa, 16.02. 16:30 15.4° C wolkig
Sa, 16.02. 16:00 15.7° C leicht bewölkt
Sa, 16.02. 15:30 16.1° C wolkig
Ortszeit Relative Feuchte Sichtweite
Sa, 16.02. 13:00 32% >70 km
Sa, 16.02. 7:00 75% 45 km
Sa, 16.02. 1:00 81% 45 km
Fr, 15.02. 19:00 40% >70 km
Fr, 15.02. 13:00 30% 65 km
Fr, 15.02. 7:00 76% >70 km
Fr, 15.02. 1:00 82% 50 km
Do, 14.02. 19:00 74% >70 km
Ortszeit Relative Feuchte Sichtweite
Sa, 16.02. 18:30 57% 45 km
Sa, 16.02. 18:20 57% -
Sa, 16.02. 18:10 70% -
Sa, 16.02. 18:00 65% 45 km
Sa, 16.02. 17:50 65% -
Sa, 16.02. 17:40 58% -
Sa, 16.02. 17:30 44% 30 km
Sa, 16.02. 17:00 40% 45 km
Sa, 16.02. 16:30 36% 40 km
Sa, 16.02. 16:00 34% 40 km
Sa, 16.02. 15:30 36% 40 km
Ortszeit Niederschlagsmenge Niederschlagsart
Sa, 16.02. 13:00 0.0 l/m2 in 6 Std. -
Sa, 16.02. 7:00 0.0 l/m2 in 12 Std. -
Sa, 16.02. 1:00 0.0 l/m2 in 6 Std. -
Fr, 15.02. 19:00 0.0 l/m2 in 12 Std. -
Fr, 15.02. 13:00 0.0 l/m2 in 6 Std. -
Fr, 15.02. 7:00 0.0 l/m2 in 12 Std. -
Fr, 15.02. 1:00 0.0 l/m2 in 6 Std. -
Do, 14.02. 19:00 0.0 l/m2 in 12 Std. -
Ortszeit Niederschlagsmenge Niederschlagsart
Sa, 16.02. 18:30 0.0 l/m2 in 1 Std. -
Sa, 16.02. 18:20 keine Meldung -
Sa, 16.02. 18:10 keine Meldung -
Sa, 16.02. 18:00 0.0 l/m2 in 1 Std. -
Sa, 16.02. 17:50 keine Meldung -
Sa, 16.02. 17:40 keine Meldung -
Sa, 16.02. 17:30 0.0 l/m2 in 1 Std. -
Sa, 16.02. 17:00 0.0 l/m2 in 1 Std. -
Sa, 16.02. 16:30 0.0 l/m2 in 1 Std. -
Sa, 16.02. 16:00 0.0 l/m2 in 1 Std. -
Sa, 16.02. 15:30 0.0 l/m2 in 1 Std. -
Ortszeit Stärke Spitze Richtung
km/h Bft. km/h Grad Sektor
Sa, 16.02. 13:00 11 2 22 250° W
Sa, 16.02. 7:00 2 1 19 360° N
Sa, 16.02. 1:00 6 1 26 80° O
Fr, 15.02. 19:00 13 3 26 140° SO
Fr, 15.02. 13:00 11 2 18 170° S
Fr, 15.02. 7:00 0 0 7 - -
Fr, 15.02. 1:00 4 1 7 350° N
Do, 14.02. 19:00 4 1 11 40° NO
Ortszeit Stärke Spitze Richtung
km/h Bft. km/h Grad Sektor
Sa, 16.02. 18:30 7 2 11 120° SO
Sa, 16.02. 18:20 7 2 - 120° SO
Sa, 16.02. 18:10 6 1 - 120° SO
Sa, 16.02. 18:00 2 1 13 130° SO
Sa, 16.02. 17:50 2 1 - 130° SO
Sa, 16.02. 17:40 4 1 - 310° NW
Sa, 16.02. 17:30 7 2 11 290° W
Sa, 16.02. 17:00 7 2 11 270° W
Sa, 16.02. 16:30 7 2 11 220° SW
Sa, 16.02. 16:00 7 2 14 210° SW
Sa, 16.02. 15:30 7 2 14 250° W
Ortszeit Untergrenze Bedeckung Gattung
total tief tief mittel hoch
Sa, 16.02. 13:00 10500 m 5/8 0/8 - - -
Sa, 16.02. 7:00 - 0/8 0/8 - - -
Sa, 16.02. 1:00 - 0/8 0/8 - - -
Fr, 15.02. 19:00 - 0/8 0/8 - - -
Fr, 15.02. 13:00 - 0/8 0/8 - - -
Fr, 15.02. 7:00 - 0/8 0/8 - - -
Fr, 15.02. 1:00 - 0/8 0/8 - - -
Do, 14.02. 19:00 - 0/8 0/8 - - -
Ortszeit Bedeckungsgrad in Achtel und Wolkenuntergrenze
Sa, 16.02. 18:30 8(10500m) 8(10500m)
Sa, 16.02. 18:20 8(10500m) 8(10500m)
Sa, 16.02. 18:10 8(10500m) 8(10500m) 8(12000m)
Sa, 16.02. 18:00 7(10500m) 8(10500m)
Sa, 16.02. 17:50 7(10500m) 8(10500m)
Sa, 16.02. 17:40 7(10500m) 8(10500m)
Sa, 16.02. 17:30 6(10500m) 8(10500m)
Sa, 16.02. 17:00 1(9000m) 7(10500m)
Sa, 16.02. 16:30 7(9000m) 8(10500m)
Sa, 16.02. 16:00 8(10500m) 8(10500m) 8(10500m)
Sa, 16.02. 15:30 8(10500m) 8(10500m)
Ortszeit Luftdruck NN (hPa) Tendenz (hPa in 3 Std.)
Sa, 16.02. 13:00 1026 - 0,3
Sa, 16.02. 7:00 1027 - 0,5
Sa, 16.02. 1:00 1029 - 0,6
Fr, 15.02. 19:00 1030 - 0,9
Fr, 15.02. 13:00 1032 - 1,1
Fr, 15.02. 7:00 1034 - 0,4
Fr, 15.02. 1:00 1035 - 0,2
Do, 14.02. 19:00 1036 + 0,1
Ortszeit Luftdruck NN (hPa) Tendenz (hPa in 3 Std.)
Sa, 16.02. 18:30 1025 0,0
Sa, 16.02. 18:20 1025 keine Meldung
Sa, 16.02. 18:10 1026 keine Meldung
Sa, 16.02. 18:00 1025 - 0,4
Sa, 16.02. 17:50 1025 keine Meldung
Sa, 16.02. 17:40 1025 keine Meldung
Sa, 16.02. 17:30 1025 - 0,6
Sa, 16.02. 17:00 1025 - 0,9
Sa, 16.02. 16:30 1025 - 1,2
Sa, 16.02. 16:00 1025 - 1,0
Sa, 16.02. 15:30 1025 - 1,1
Ortszeit Schneehöhe (cm)
Sa, 16.02. 13:00 0
Sa, 16.02. 7:00 0
Sa, 16.02. 1:00 0
Fr, 15.02. 19:00 0
Fr, 15.02. 13:00 0
Fr, 15.02. 7:00 0
Fr, 15.02. 1:00 0
Do, 14.02. 19:00 0
Ortszeit Schneehöhe (cm)
Sa, 16.02. 18:30 0
Sa, 16.02. 18:20 0
Sa, 16.02. 18:10 0
Sa, 16.02. 18:00 0
Sa, 16.02. 17:50 0
Sa, 16.02. 17:40 0
Sa, 16.02. 17:30 0
Sa, 16.02. 17:00 0
Sa, 16.02. 16:30 0
Sa, 16.02. 16:00 0
Sa, 16.02. 15:30 0
Link zu dieser Seite / Seite empfehlen

Das Wetter in ...